Time;durP1;ratioP1;P1;durP2;ratioP2;P2;SDS_P1;SDS_P2;PMS_P1;PMS_P2;Temp;Humidity;BMP_temperature;BMP_pressure;BME280_temperature;BME280_humidity;BME280_pressure;Samples;Min_cycle;Max_cycle;Signal;HPM_P1;HPM_P2
2023/03/11 00:00:59;;;;;;;;;;;4.50;99.90;;;;;;5035757;28;19909;-78
2023/03/11 00:03:26;;;;;;;;;;;4.50;99.90;;;;;;5035114;28;19910;-78
2023/03/11 00:05:52;;;;;;;;;;;4.50;99.90;;;;;;5036734;28;19913;-78
2023/03/11 00:08:19;;;;;;;;;;;4.50;99.90;;;;;;5037981;28;20393;-78
2023/03/11 00:10:46;;;;;;;;;;;4.50;99.90;;;;;;5037565;28;19948;-78
2023/03/11 00:13:12;;;;;;;;;;;4.50;99.90;;;;;;5037579;28;19916;-77
2023/03/11 00:15:38;;;;;;;;;;;4.50;99.90;;;;;;5038214;28;19936;-78
2023/03/11 00:18:03;;;;;;;;;;;4.50;99.90;;;;;;5038334;28;20357;-78
2023/03/11 00:20:31;;;;;;;;;;;4.50;99.90;;;;;;5037369;28;19959;-77
2023/03/11 00:22:57;;;;;;;;;;;4.60;99.90;;;;;;5036988;28;19916;-77
2023/03/11 00:25:23;;;;;;;;;;;4.60;99.90;;;;;;5019319;28;19913;-77
2023/03/11 00:27:49;;;;;;;;;;;4.60;99.90;;;;;;5036958;28;19913;-77
2023/03/11 00:30:15;;;;;;;;;;;4.50;99.90;;;;;;5037266;28;20380;-77
2023/03/11 00:32:41;;;;;;;;;;;4.60;99.90;;;;;;5036889;28;19921;-77
2023/03/11 00:35:10;;;;;;;;;;;4.60;99.90;;;;;;5036517;28;20338;-77
2023/03/11 00:37:35;;;;;;;;;;;4.60;99.90;;;;;;5036669;28;19949;-77
2023/03/11 00:40:01;;;;;;;;;;;4.50;99.90;;;;;;5036869;28;19913;-77
2023/03/11 00:42:26;;;;;;;;;;;4.40;99.90;;;;;;5021937;28;19917;-78
2023/03/11 00:44:52;;;;;;;;;;;4.30;99.90;;;;;;5018017;28;20008;-78
2023/03/11 00:47:17;;;;;;;;;;;4.20;99.90;;;;;;5018048;28;19936;-78
2023/03/11 00:49:43;;;;;;;;;;;4.10;99.90;;;;;;5026198;28;19920;-78
2023/03/11 00:52:08;;;;;;;;;;;4.00;99.90;;;;;;5038224;28;19920;-78
2023/03/11 00:54:34;;;;;;;;;;;3.90;99.90;;;;;;5038868;28;20393;-78
2023/03/11 00:57:00;;;;;;;;;;;3.90;99.90;;;;;;5038333;28;20365;-78
2023/03/11 00:59:25;;;;;;;;;;;3.90;99.90;;;;;;5038357;28;20393;-78
2023/03/11 01:01:51;;;;;;;;;;;3.80;99.90;;;;;;5037976;28;20281;-78
2023/03/11 01:04:16;;;;;;;;;;;3.80;99.90;;;;;;5037361;28;19913;-78
2023/03/11 01:06:43;;;;;;;;;;;3.80;99.90;;;;;;5036662;28;19913;-77
2023/03/11 01:09:08;;;;;;;;;;;3.70;99.90;;;;;;5036824;28;20396;-78
2023/03/11 01:11:34;;;;;;;;;;;3.80;99.90;;;;;;5018874;28;19913;-77
2023/03/11 01:13:59;;;;;;;;;;;3.70;99.90;;;;;;5036700;28;19915;-78
2023/03/11 01:16:25;;;;;;;;;;;3.60;99.90;;;;;;5037034;28;19913;-78
2023/03/11 01:18:50;;;;;;;;;;;3.50;99.90;;;;;;5035407;28;19913;-78
2023/03/11 01:21:16;;;;;;;;;;;3.30;99.90;;;;;;5036179;28;19917;-77
2023/03/11 01:23:42;;;;;;;;;;;3.30;99.90;;;;;;5036715;28;19943;-78
2023/03/11 01:26:07;;;;;;;;;;;3.20;99.90;;;;;;5036896;28;20365;-78
2023/03/11 01:28:33;;;;;;;;;;;3.20;99.90;;;;;;5037048;28;19925;-78
2023/03/11 01:30:58;;;;;;;;;;;3.10;99.90;;;;;;5036309;28;20231;-78
2023/03/11 01:33:24;;;;;;;;;;;3.00;99.90;;;;;;5036525;28;20353;-78
2023/03/11 01:35:50;;;;;;;;;;;3.00;99.90;;;;;;5017950;28;19920;-78
2023/03/11 01:38:16;;;;;;;;;;;2.90;99.90;;;;;;5018063;28;20348;-77
2023/03/11 01:40:41;;;;;;;;;;;3.00;99.90;;;;;;5036592;28;19917;-78
2023/03/11 01:43:27;;;;;;;;;;;3.00;99.90;;;;;;5036182;28;19916;-78
2023/03/11 01:45:52;;;;;;;;;;;3.00;99.90;;;;;;5018250;28;19963;-77
2023/03/11 01:48:18;;;;;;;;;;;3.00;99.90;;;;;;5036071;28;19917;-78
2023/03/11 01:50:45;;;;;;;;;;;3.00;99.90;;;;;;5035772;28;20381;-78
2023/03/11 01:53:16;;;;;;;;;;;3.00;99.90;;;;;;5035780;28;19917;-78
2023/03/11 01:55:42;;;;;;;;;;;3.00;99.90;;;;;;5035947;28;19964;-78
2023/03/11 01:58:09;;;;;;;;;;;3.00;99.90;;;;;;5036171;28;19917;-78
2023/03/11 02:00:36;;;;;;;;;;;2.90;99.90;;;;;;5036223;28;19909;-78
2023/03/11 02:03:05;;;;;;;;;;;2.90;99.90;;;;;;5036023;28;19920;-78
2023/03/11 02:05:32;;;;;;;;;;;2.90;99.90;;;;;;5035479;28;20292;-77
2023/03/11 02:07:57;;;;;;;;;;;2.80;99.90;;;;;;5035207;28;19922;-78
2023/03/11 02:10:23;;;;;;;;;;;2.80;99.90;;;;;;5037059;28;19964;-78
2023/03/11 02:12:49;;;;;;;;;;;2.80;99.90;;;;;;5035411;28;19963;-77
2023/03/11 02:15:15;;;;;;;;;;;2.70;99.90;;;;;;5035835;28;19931;-77
2023/03/11 02:17:41;;;;;;;;;;;2.70;99.90;;;;;;5035184;28;19913;-78
2023/03/11 02:20:13;;;;;;;;;;;2.70;99.90;;;;;;5035207;28;19910;-77
2023/03/11 02:22:39;;;;;;;;;;;2.70;99.90;;;;;;5034590;28;19913;-77
2023/03/11 02:25:13;;;;;;;;;;;2.70;99.90;;;;;;5033403;28;20534;-78
2023/03/11 02:27:40;;;;;;;;;;;2.70;99.90;;;;;;5035363;28;19917;-77
2023/03/11 02:30:06;;;;;;;;;;;2.60;99.90;;;;;;5033992;28;19937;-77
2023/03/11 02:32:32;;;;;;;;;;;2.50;99.90;;;;;;5034734;28;19968;-77
2023/03/11 02:34:57;;;;;;;;;;;2.50;99.90;;;;;;5035124;28;19909;-77
2023/03/11 02:37:23;;;;;;;;;;;2.60;99.90;;;;;;5033345;28;19936;-78
2023/03/11 02:39:49;;;;;;;;;;;2.60;99.90;;;;;;5033852;28;19971;-77
2023/03/11 02:42:21;;;;;;;;;;;2.60;99.90;;;;;;5034697;28;19932;-78
2023/03/11 02:44:51;;;;;;;;;;;2.70;99.90;;;;;;5034859;28;19968;-78
2023/03/11 02:47:16;;;;;;;;;;;2.60;99.90;;;;;;5035025;28;19913;-77
2023/03/11 02:49:42;;;;;;;;;;;2.70;99.90;;;;;;5034791;28;20004;-78
2023/03/11 02:52:07;;;;;;;;;;;2.60;99.90;;;;;;5036544;28;20413;-78
2023/03/11 02:54:33;;;;;;;;;;;2.60;99.90;;;;;;5034913;28;20020;-78
2023/03/11 02:56:58;;;;;;;;;;;2.60;99.90;;;;;;5034481;28;19913;-78
2023/03/11 02:59:24;;;;;;;;;;;2.60;99.90;;;;;;5035232;28;20008;-78
2023/03/11 03:01:49;;;;;;;;;;;2.60;99.90;;;;;;5034417;28;20377;-78
2023/03/11 03:04:15;;;;;;;;;;;2.60;99.90;;;;;;5016679;28;20344;-78
2023/03/11 03:06:40;;;;;;;;;;;2.60;99.90;;;;;;5034275;28;20015;-77
2023/03/11 03:09:06;;;;;;;;;;;2.60;99.90;;;;;;5034258;28;19921;-77
2023/03/11 03:11:31;;;;;;;;;;;2.60;99.90;;;;;;5034201;28;19913;-77
2023/03/11 03:13:57;;;;;;;;;;;2.60;99.90;;;;;;5034868;28;19958;-78
2023/03/11 03:16:23;;;;;;;;;;;2.60;99.90;;;;;;5034691;28;19917;-78
2023/03/11 03:18:48;;;;;;;;;;;2.50;99.90;;;;;;5034710;28;20288;-78
2023/03/11 03:21:14;;;;;;;;;;;2.50;99.90;;;;;;5035131;28;19913;-78
2023/03/11 03:23:39;;;;;;;;;;;2.50;99.90;;;;;;5034323;28;19913;-77
2023/03/11 03:26:05;;;;;;;;;;;2.50;99.90;;;;;;5034366;28;19963;-77
2023/03/11 03:28:30;;;;;;;;;;;2.40;99.90;;;;;;5034240;28;19971;-78
2023/03/11 03:31:02;;;;;;;;;;;2.40;99.90;;;;;;5033907;28;19909;-77
2023/03/11 03:33:27;;;;;;;;;;;2.40;99.90;;;;;;5033994;28;19909;-78
2023/03/11 03:35:53;;;;;;;;;;;2.50;99.90;;;;;;5032813;28;19979;-77
2023/03/11 03:38:18;;;;;;;;;;;2.40;99.90;;;;;;5034038;28;19935;-78
2023/03/11 03:40:45;;;;;;;;;;;2.40;99.90;;;;;;5033820;28;19920;-78
2023/03/11 03:43:10;;;;;;;;;;;2.30;99.90;;;;;;5034206;28;19916;-78
2023/03/11 03:45:36;;;;;;;;;;;2.30;99.90;;;;;;5034095;28;19913;-77
2023/03/11 03:48:01;;;;;;;;;;;2.30;99.90;;;;;;5033897;28;19918;-78
2023/03/11 03:50:27;;;;;;;;;;;2.30;99.90;;;;;;5034161;28;19920;-77
2023/03/11 03:52:53;;;;;;;;;;;2.30;99.90;;;;;;5032498;28;19913;-78
2023/03/11 03:55:18;;;;;;;;;;;2.30;99.90;;;;;;5033882;28;19923;-78
2023/03/11 03:57:44;;;;;;;;;;;2.30;99.90;;;;;;5035156;28;19913;-78
2023/03/11 04:00:10;;;;;;;;;;;2.30;99.90;;;;;;5036299;28;19909;-78
2023/03/11 04:02:35;;;;;;;;;;;2.30;99.90;;;;;;5035316;28;20326;-78
2023/03/11 04:05:01;;;;;;;;;;;2.40;99.90;;;;;;5035468;28;19963;-78
2023/03/11 04:07:26;;;;;;;;;;;2.30;99.90;;;;;;5034132;28;19917;-78
2023/03/11 04:09:52;;;;;;;;;;;2.20;99.90;;;;;;5034108;28;19921;-78
2023/03/11 04:12:17;;;;;;;;;;;2.20;99.90;;;;;;5034154;28;20032;-78
2023/03/11 04:14:43;;;;;;;;;;;2.20;99.90;;;;;;5034189;28;19913;-78
2023/03/11 04:17:12;;;;;;;;;;;2.20;99.90;;;;;;5033886;28;20392;-78
2023/03/11 04:19:38;;;;;;;;;;;2.30;99.90;;;;;;5034206;28;20289;-78
2023/03/11 04:22:04;;;;;;;;;;;2.30;99.90;;;;;;5033761;28;19913;-78
2023/03/11 04:24:29;;;;;;;;;;;2.30;99.90;;;;;;5033957;28;19920;-78
2023/03/11 04:26:55;;;;;;;;;;;2.30;99.90;;;;;;5034462;28;19913;-77
2023/03/11 04:29:20;;;;;;;;;;;2.30;99.90;;;;;;5033954;28;19924;-78
2023/03/11 04:31:46;;;;;;;;;;;2.30;99.90;;;;;;5034060;28;19927;-79
2023/03/11 04:34:12;;;;;;;;;;;2.30;99.90;;;;;;5034236;28;19959;-78
2023/03/11 04:36:37;;;;;;;;;;;2.30;99.90;;;;;;5034355;28;19913;-78
2023/03/11 04:39:03;;;;;;;;;;;2.30;99.90;;;;;;5034430;28;19913;-78
2023/03/11 04:41:28;;;;;;;;;;;2.30;99.90;;;;;;5034176;28;19913;-78
2023/03/11 04:43:54;;;;;;;;;;;2.30;99.90;;;;;;5035039;28;19963;-78
2023/03/11 04:46:19;;;;;;;;;;;2.20;99.90;;;;;;5033881;28;19913;-78
2023/03/11 04:48:45;;;;;;;;;;;2.20;99.90;;;;;;5034124;28;19913;-78
2023/03/11 04:51:11;;;;;;;;;;;2.20;99.90;;;;;;5033759;28;20055;-78
2023/03/11 04:53:36;;;;;;;;;;;2.20;99.90;;;;;;5035319;28;19913;-78
2023/03/11 04:56:02;;;;;;;;;;;2.30;99.90;;;;;;5038191;28;19913;-80
2023/03/11 04:58:27;;;;;;;;;;;2.30;99.90;;;;;;5039973;28;19917;-79
2023/03/11 05:00:55;;;;;;;;;;;2.20;99.90;;;;;;5039658;28;19909;-79
2023/03/11 05:03:20;;;;;;;;;;;2.20;99.90;;;;;;5039159;28;20335;-79
2023/03/11 05:05:46;;;;;;;;;;;2.10;99.90;;;;;;5039269;28;19913;-79
2023/03/11 05:08:11;;;;;;;;;;;2.30;99.90;;;;;;5038802;28;19939;-79
2023/03/11 05:10:38;;;;;;;;;;;2.30;99.90;;;;;;5038935;28;19913;-79
2023/03/11 05:13:04;;;;;;;;;;;2.20;99.90;;;;;;5039184;28;19909;-79
2023/03/11 05:15:30;;;;;;;;;;;2.10;99.90;;;;;;5037174;28;19988;-78
2023/03/11 05:17:56;;;;;;;;;;;2.10;99.90;;;;;;5036386;28;19921;-77
2023/03/11 05:20:22;;;;;;;;;;;2.10;99.90;;;;;;5036203;28;20289;-77
2023/03/11 05:22:47;;;;;;;;;;;2.10;99.90;;;;;;5035931;28;19909;-78
2023/03/11 05:25:13;;;;;;;;;;;2.00;99.90;;;;;;5038300;28;19920;-78
2023/03/11 05:27:38;;;;;;;;;;;2.00;99.90;;;;;;5037352;28;19921;-78
2023/03/11 05:30:04;;;;;;;;;;;2.00;99.90;;;;;;5036942;28;19913;-77
2023/03/11 05:32:30;;;;;;;;;;;2.00;99.90;;;;;;5036205;28;19917;-77
2023/03/11 05:34:55;;;;;;;;;;;1.90;99.90;;;;;;5017565;28;19920;-76
2023/03/11 05:37:21;;;;;;;;;;;1.90;99.90;;;;;;5035774;28;20380;-75
2023/03/11 05:39:47;;;;;;;;;;;1.90;99.90;;;;;;5036160;28;20011;-77
2023/03/11 05:42:12;;;;;;;;;;;1.90;99.90;;;;;;5035759;28;20019;-76
2023/03/11 05:44:38;;;;;;;;;;;1.90;99.90;;;;;;5035894;28;20361;-76
2023/03/11 05:47:04;;;;;;;;;;;1.90;99.90;;;;;;5034698;28;19924;-75
2023/03/11 05:49:29;;;;;;;;;;;1.90;99.90;;;;;;5030106;28;20004;-76
2023/03/11 05:51:55;;;;;;;;;;;1.80;99.90;;;;;;5015634;28;19914;-75
2023/03/11 05:54:20;;;;;;;;;;;1.80;99.90;;;;;;5015370;28;20017;-76
2023/03/11 05:56:46;;;;;;;;;;;1.80;99.90;;;;;;5015701;28;19960;-76
2023/03/11 05:59:13;;;;;;;;;;;1.80;99.90;;;;;;5015638;28;19921;-76
2023/03/11 06:01:39;;;;;;;;;;;1.80;99.90;;;;;;5015492;28;20000;-76
2023/03/11 06:04:05;;;;;;;;;;;1.80;99.90;;;;;;5015402;28;19940;-76
2023/03/11 06:06:30;;;;;;;;;;;1.80;99.90;;;;;;5015444;28;19916;-76
2023/03/11 06:08:56;;;;;;;;;;;1.80;99.90;;;;;;5015207;28;19947;-76
2023/03/11 06:11:25;;;;;;;;;;;1.80;99.90;;;;;;5015261;28;19909;-76
2023/03/11 06:13:53;;;;;;;;;;;1.70;99.90;;;;;;5013673;28;19921;-76
2023/03/11 06:16:19;;;;;;;;;;;1.80;99.90;;;;;;4997393;28;20000;-76
2023/03/11 06:18:44;;;;;;;;;;;1.70;99.90;;;;;;5015252;28;19952;-76
2023/03/11 06:21:14;;;;;;;;;;;1.70;99.90;;;;;;5033167;28;19960;-76
2023/03/11 06:23:40;;;;;;;;;;;1.70;99.90;;;;;;5017066;28;19921;-76
2023/03/11 06:26:05;;;;;;;;;;;1.70;99.90;;;;;;5035060;28;19913;-76
2023/03/11 06:28:31;;;;;;;;;;;1.70;99.90;;;;;;5034806;28;19917;-76
2023/03/11 06:31:05;;;;;;;;;;;1.60;99.90;;;;;;5016887;28;20036;-77
2023/03/11 06:33:31;;;;;;;;;;;1.60;99.90;;;;;;5034681;28;19973;-76
2023/03/11 06:35:57;;;;;;;;;;;1.60;99.90;;;;;;5035115;28;19917;-76
2023/03/11 06:38:22;;;;;;;;;;;1.60;99.90;;;;;;5016786;28;20417;-76
2023/03/11 06:40:48;;;;;;;;;;;1.60;99.90;;;;;;5034831;28;19956;-76
2023/03/11 06:43:13;;;;;;;;;;;1.50;99.90;;;;;;5035093;28;19940;-76
2023/03/11 06:45:39;;;;;;;;;;;1.50;99.90;;;;;;5016935;28;19917;-76
2023/03/11 06:48:05;;;;;;;;;;;1.50;99.90;;;;;;5034507;28;19924;-76
2023/03/11 06:50:30;;;;;;;;;;;1.50;99.90;;;;;;5002950;28;19920;-77
2023/03/11 06:52:56;;;;;;;;;;;1.50;99.90;;;;;;5014341;28;19996;-75
2023/03/11 06:55:21;;;;;;;;;;;1.50;99.90;;;;;;5014903;28;20424;-76
2023/03/11 06:57:47;;;;;;;;;;;1.50;99.90;;;;;;4997524;28;19914;-76
2023/03/11 07:00:13;;;;;;;;;;;1.40;99.90;;;;;;5014520;28;19917;-76
2023/03/11 07:02:39;;;;;;;;;;;1.50;99.90;;;;;;5014793;28;20298;-76
2023/03/11 07:05:04;;;;;;;;;;;1.40;99.90;;;;;;5014504;28;19913;-76
2023/03/11 07:07:30;;;;;;;;;;;1.40;99.90;;;;;;5014273;28;20011;-76
2023/03/11 07:09:58;;;;;;;;;;;1.40;99.90;;;;;;5014654;28;19914;-76
2023/03/11 07:12:24;;;;;;;;;;;1.30;99.90;;;;;;5014352;28;20008;-76
2023/03/11 07:14:56;;;;;;;;;;;1.30;99.90;;;;;;5014120;28;19941;-76
2023/03/11 07:17:22;;;;;;;;;;;1.30;99.90;;;;;;5013959;28;19997;-76
2023/03/11 07:19:47;;;;;;;;;;;1.30;99.90;;;;;;5022273;28;19963;-75
2023/03/11 07:22:13;;;;;;;;;;;1.30;99.90;;;;;;5034461;28;19913;-75
2023/03/11 07:24:39;;;;;;;;;;;1.30;99.90;;;;;;5033777;28;19917;-76
2023/03/11 07:27:05;;;;;;;;;;;1.30;99.90;;;;;;5034396;28;19920;-76
2023/03/11 07:29:30;;;;;;;;;;;1.30;99.90;;;;;;5033868;28;19936;-76
2023/03/11 07:31:56;;;;;;;;;;;1.30;99.90;;;;;;5033698;28;20374;-76
2023/03/11 07:34:21;;;;;;;;;;;1.30;99.90;;;;;;5033825;28;19959;-76
2023/03/11 07:36:47;;;;;;;;;;;1.30;99.90;;;;;;5033774;28;19913;-77
2023/03/11 07:39:14;;;;;;;;;;;1.30;99.90;;;;;;5033572;28;19962;-76
2023/03/11 07:41:40;;;;;;;;;;;1.30;99.90;;;;;;5033998;28;19966;-76
2023/03/11 07:44:06;;;;;;;;;;;1.30;99.90;;;;;;5033827;28;20003;-76
2023/03/11 07:46:31;;;;;;;;;;;1.30;99.90;;;;;;5033708;28;19909;-76
2023/03/11 07:48:57;;;;;;;;;;;1.30;99.90;;;;;;5033595;28;20012;-76
2023/03/11 07:51:24;;;;;;;;;;;1.30;99.90;;;;;;5033552;28;19909;-75
2023/03/11 07:53:51;;;;;;;;;;;1.40;99.90;;;;;;5015653;28;19956;-76
2023/03/11 07:56:17;;;;;;;;;;;1.40;99.90;;;;;;5033611;28;19913;-76
2023/03/11 07:58:43;;;;;;;;;;;1.40;99.90;;;;;;5032943;28;19916;-76
2023/03/11 08:01:16;;;;;;;;;;;1.40;99.90;;;;;;5033424;28;20000;-76
2023/03/11 08:03:43;;;;;;;;;;;1.40;99.90;;;;;;5015832;28;19909;-76
2023/03/11 08:06:16;;;;;;;;;;;1.50;99.90;;;;;;5033491;28;19917;-76
2023/03/11 08:08:42;;;;;;;;;;;1.50;99.90;;;;;;5033155;28;19956;-76
2023/03/11 08:11:08;;;;;;;;;;;1.50;99.90;;;;;;5033421;28;19949;-76
2023/03/11 08:13:33;;;;;;;;;;;1.50;99.90;;;;;;5033762;28;19909;-76
2023/03/11 08:16:01;;;;;;;;;;;1.50;99.90;;;;;;5015755;28;19917;-76
2023/03/11 08:18:30;;;;;;;;;;;1.50;99.90;;;;;;5033677;28;19909;-76
2023/03/11 08:20:56;;;;;;;;;;;1.50;99.90;;;;;;5033287;28;19920;-76
2023/03/11 08:23:21;;;;;;;;;;;1.50;99.90;;;;;;5033010;28;19909;-76
2023/03/11 08:25:47;;;;;;;;;;;1.60;99.90;;;;;;5033321;28;20289;-76
2023/03/11 08:28:12;;;;;;;;;;;1.60;99.90;;;;;;5035337;28;20328;-75
2023/03/11 08:30:38;;;;;;;;;;;1.80;99.90;;;;;;5037581;28;19913;-76
2023/03/11 08:33:04;;;;;;;;;;;1.80;99.90;;;;;;5037626;28;20018;-75
2023/03/11 08:35:30;;;;;;;;;;;1.80;99.90;;;;;;5019320;28;20361;-75
2023/03/11 08:37:56;;;;;;;;;;;1.80;99.90;;;;;;5036943;28;19909;-75
2023/03/11 08:40:21;;;;;;;;;;;1.90;99.90;;;;;;5037195;28;19921;-76
2023/03/11 08:42:47;;;;;;;;;;;1.90;99.90;;;;;;5036792;28;19909;-76
2023/03/11 08:45:13;;;;;;;;;;;1.90;99.90;;;;;;5035665;28;19928;-76
2023/03/11 08:47:39;;;;;;;;;;;2.00;99.90;;;;;;5036958;28;20353;-76
2023/03/11 08:50:05;;;;;;;;;;;2.00;99.90;;;;;;5036599;28;19948;-75
2023/03/11 08:52:31;;;;;;;;;;;2.00;99.90;;;;;;5035920;28;20004;-76
2023/03/11 08:54:57;;;;;;;;;;;2.00;99.90;;;;;;5035739;28;20000;-76
2023/03/11 08:57:22;;;;;;;;;;;2.10;99.90;;;;;;5035985;28;19913;-76
2023/03/11 08:59:48;;;;;;;;;;;2.00;99.90;;;;;;5018446;28;19917;-76
2023/03/11 09:02:13;;;;;;;;;;;2.00;99.90;;;;;;5035839;28;19914;-76
2023/03/11 09:04:39;;;;;;;;;;;2.00;99.90;;;;;;5035810;28;19925;-76
2023/03/11 09:07:05;;;;;;;;;;;2.00;99.90;;;;;;5036133;28;19920;-76
2023/03/11 09:09:31;;;;;;;;;;;2.00;99.90;;;;;;5036156;28;19913;-76
2023/03/11 09:11:56;;;;;;;;;;;1.90;99.90;;;;;;5036532;28;19909;-76
2023/03/11 09:14:22;;;;;;;;;;;1.90;99.90;;;;;;5036236;28;19913;-75
2023/03/11 09:16:47;;;;;;;;;;;2.00;99.90;;;;;;5035021;28;20004;-76
2023/03/11 09:19:13;;;;;;;;;;;2.00;99.90;;;;;;5036549;28;19920;-76
2023/03/11 09:21:38;;;;;;;;;;;2.00;99.90;;;;;;5036021;28;20519;-76
2023/03/11 09:24:04;;;;;;;;;;;2.00;99.90;;;;;;5035916;28;19955;-76
2023/03/11 09:26:30;;;;;;;;;;;2.00;99.90;;;;;;5036005;28;19960;-75
2023/03/11 09:28:56;;;;;;;;;;;1.90;99.90;;;;;;5036000;28;20362;-76
2023/03/11 09:31:21;;;;;;;;;;;1.90;99.90;;;;;;5036122;28;19975;-76
2023/03/11 09:33:48;;;;;;;;;;;1.90;99.90;;;;;;5035926;28;19909;-76
2023/03/11 09:36:16;;;;;;;;;;;1.90;99.90;;;;;;5036123;28;19963;-76
2023/03/11 09:38:42;;;;;;;;;;;1.90;99.90;;;;;;5012903;28;20420;-76
2023/03/11 09:41:17;;;;;;;;;;;1.90;99.90;;;;;;5009552;28;19967;-76
2023/03/11 09:44:11;;;;;;;;;;;1.90;99.90;;;;;;5015830;28;19963;-76
2023/03/11 09:46:40;;;;;;;;;;;2.00;99.90;;;;;;5004570;28;20277;-76
2023/03/11 09:49:29;;;;;;;;;;;2.00;99.90;;;;;;5010412;28;19937;-78
2023/03/11 09:52:13;;;;;;;;;;;2.00;99.90;;;;;;5006969;28;19914;-77
2023/03/11 09:54:41;;;;;;;;;;;2.00;99.90;;;;;;5006531;28;19927;-76
2023/03/11 09:57:11;;;;;;;;;;;2.10;99.90;;;;;;5010570;28;19963;-76
2023/03/11 09:59:37;;;;;;;;;;;2.00;99.90;;;;;;5006992;28;19918;-77
2023/03/11 10:02:03;;;;;;;;;;;2.00;99.90;;;;;;5015671;28;19956;-77
2023/03/11 10:04:32;;;;;;;;;;;2.00;99.90;;;;;;5004971;28;20322;-76
2023/03/11 10:06:59;;;;;;;;;;;2.10;99.90;;;;;;4995937;28;19921;-76
2023/03/11 10:09:32;;;;;;;;;;;2.00;99.90;;;;;;5004328;28;19913;-75
2023/03/11 10:12:04;;;;;;;;;;;2.00;99.90;;;;;;4996588;28;19910;-76
2023/03/11 10:14:48;;;;;;;;;;;2.00;99.90;;;;;;5008521;28;19918;-78
2023/03/11 10:17:28;;;;;;;;;;;2.10;99.90;;;;;;5008582;28;19996;-76
2023/03/11 10:19:53;;;;;;;;;;;2.10;99.90;;;;;;5017418;28;19909;-76
2023/03/11 10:22:19;;;;;;;;;;;2.20;99.90;;;;;;5015132;28;20016;-75
2023/03/11 10:24:52;;;;;;;;;;;2.20;99.90;;;;;;5014896;28;19945;-76
2023/03/11 10:27:20;;;;;;;;;;;2.30;99.90;;;;;;5015358;28;19913;-76
2023/03/11 10:29:46;;;;;;;;;;;2.30;99.90;;;;;;4997564;28;19964;-76
2023/03/11 10:32:19;;;;;;;;;;;2.40;99.90;;;;;;5014892;28;19926;-76
2023/03/11 10:34:51;;;;;;;;;;;2.40;99.90;;;;;;5015224;28;19921;-76
2023/03/11 10:37:31;;;;;;;;;;;2.40;99.90;;;;;;5006981;28;19949;-76
2023/03/11 10:40:04;;;;;;;;;;;2.50;99.90;;;;;;5014720;28;20317;-76
2023/03/11 10:42:31;;;;;;;;;;;2.50;99.90;;;;;;5014889;28;19914;-76
2023/03/11 10:44:57;;;;;;;;;;;2.50;99.90;;;;;;5015199;28;19933;-76
2023/03/11 10:47:24;;;;;;;;;;;2.50;99.90;;;;;;5014076;28;19925;-76
2023/03/11 10:49:51;;;;;;;;;;;2.50;99.90;;;;;;4997577;28;19964;-76
2023/03/11 10:52:17;;;;;;;;;;;2.60;99.90;;;;;;5014124;28;19910;-76
2023/03/11 10:54:47;;;;;;;;;;;2.60;99.90;;;;;;5014763;28;19949;-76
2023/03/11 10:57:25;;;;;;;;;;;2.70;99.90;;;;;;4997377;28;20362;-75
2023/03/11 10:59:52;;;;;;;;;;;2.70;99.90;;;;;;5014569;28;19976;-74
2023/03/11 11:02:20;;;;;;;;;;;2.70;99.90;;;;;;5010006;28;19917;-74
2023/03/11 11:04:46;;;;;;;;;;;2.80;99.90;;;;;;5011184;28;19914;-75
2023/03/11 11:07:26;;;;;;;;;;;2.80;99.90;;;;;;5002911;28;19917;-75
2023/03/11 11:10:24;;;;;;;;;;;2.80;99.90;;;;;;5010835;28;19996;-75
2023/03/11 11:12:58;;;;;;;;;;;2.90;99.90;;;;;;5000599;28;19921;-75
2023/03/11 11:15:29;;;;;;;;;;;3.00;99.90;;;;;;5010942;28;20413;-74
2023/03/11 11:17:57;;;;;;;;;;;3.00;99.90;;;;;;5014845;28;20358;-73
2023/03/11 11:20:23;;;;;;;;;;;3.20;99.90;;;;;;4996242;28;19910;-76
2023/03/11 11:22:59;;;;;;;;;;;3.30;99.90;;;;;;5013461;28;19917;-74
2023/03/11 11:25:27;;;;;;;;;;;3.30;99.90;;;;;;5013939;28;20401;-74
2023/03/11 11:27:58;;;;;;;;;;;3.40;99.90;;;;;;5014099;28;19924;-74
2023/03/11 11:30:24;;;;;;;;;;;3.40;99.90;;;;;;5014463;28;19933;-74
2023/03/11 11:32:52;;;;;;;;;;;3.40;99.90;;;;;;5013968;28;19929;-74
2023/03/11 11:35:19;;;;;;;;;;;3.50;99.90;;;;;;5014082;28;19920;-74
2023/03/11 11:37:49;;;;;;;;;;;3.50;99.90;;;;;;5014088;28;20389;-74
2023/03/11 11:40:15;;;;;;;;;;;3.40;99.90;;;;;;5013864;28;19913;-74
2023/03/11 11:43:03;;;;;;;;;;;3.50;99.90;;;;;;5014026;28;20404;-74
2023/03/11 11:45:29;;;;;;;;;;;3.50;99.90;;;;;;5014271;28;19996;-74
2023/03/11 11:47:57;;;;;;;;;;;3.60;99.90;;;;;;5013856;28;20016;-74
2023/03/11 11:50:35;;;;;;;;;;;3.60;99.90;;;;;;5013982;28;19909;-74
2023/03/11 11:53:14;;;;;;;;;;;3.70;99.90;;;;;;5013874;28;19909;-74
2023/03/11 11:55:42;;;;;;;;;;;3.80;99.90;;;;;;5014157;28;19921;-74
2023/03/11 11:58:11;;;;;;;;;;;3.80;99.90;;;;;;4996680;28;19909;-74
2023/03/11 12:00:44;;;;;;;;;;;3.80;99.90;;;;;;4996338;28;19916;-74
2023/03/11 12:03:28;;;;;;;;;;;3.80;99.90;;;;;;5016908;28;19960;-74
2023/03/11 12:05:57;;;;;;;;;;;3.90;99.90;;;;;;5017811;28;19909;-74
2023/03/11 12:08:31;;;;;;;;;;;3.90;99.90;;;;;;5017758;28;19913;-74
2023/03/11 12:11:07;;;;;;;;;;;3.90;99.90;;;;;;5017726;28;19910;-74
2023/03/11 12:13:53;;;;;;;;;;;3.80;99.90;;;;;;5018367;28;20005;-78
2023/03/11 12:16:37;;;;;;;;;;;3.80;99.90;;;;;;5018430;28;19975;-78
2023/03/11 12:19:11;;;;;;;;;;;3.80;99.90;;;;;;5020280;28;20277;-77
2023/03/11 12:21:55;;;;;;;;;;;3.70;99.90;;;;;;5020231;28;19916;-78
2023/03/11 12:24:27;;;;;;;;;;;3.60;99.90;;;;;;5037754;28;20307;-78
2023/03/11 12:26:53;;;;;;;;;;;3.60;99.90;;;;;;5041387;28;19909;-78
2023/03/11 12:29:21;;;;;;;;;;;3.70;99.90;;;;;;5039818;28;19917;-78
2023/03/11 12:31:47;;;;;;;;;;;3.80;99.90;;;;;;5021869;28;20309;-78
2023/03/11 12:34:16;;;;;;;;;;;3.80;99.90;;;;;;5040780;28;19939;-78
2023/03/11 12:36:43;;;;;;;;;;;3.80;99.90;;;;;;5040023;28;19979;-78
2023/03/11 12:39:24;;;;;;;;;;;3.70;99.90;;;;;;5039205;28;19928;-78
2023/03/11 12:42:08;;;;;;;;;;;3.60;99.90;;;;;;5038392;28;19916;-78
2023/03/11 12:44:33;;;;;;;;;;;3.70;99.90;;;;;;5038492;28;19916;-78
2023/03/11 12:47:00;;;;;;;;;;;3.60;99.90;;;;;;5040178;28;19913;-78
2023/03/11 12:49:29;;;;;;;;;;;3.60;99.90;;;;;;5039224;28;19909;-78
2023/03/11 12:52:10;;;;;;;;;;;3.60;99.90;;;;;;5038590;28;19909;-78
2023/03/11 12:54:38;;;;;;;;;;;3.60;99.90;;;;;;5037713;28;19916;-78
2023/03/11 12:57:23;;;;;;;;;;;3.70;99.90;;;;;;5020646;28;19991;-78
2023/03/11 13:00:16;;;;;;;;;;;3.70;99.90;;;;;;5038024;28;19923;-78
2023/03/11 13:02:46;;;;;;;;;;;3.70;99.90;;;;;;5037434;28;19909;-78
2023/03/11 13:05:17;;;;;;;;;;;3.70;99.90;;;;;;5019641;28;19982;-77
2023/03/11 13:07:46;;;;;;;;;;;3.70;99.90;;;;;;5037455;28;19963;-78
2023/03/11 13:10:13;;;;;;;;;;;3.70;99.90;;;;;;5037369;28;20316;-78
2023/03/11 13:12:39;;;;;;;;;;;3.60;99.90;;;;;;5037190;28;20337;-78
2023/03/11 13:15:17;;;;;;;;;;;3.60;99.90;;;;;;5036442;28;19941;-78
2023/03/11 13:18:04;;;;;;;;;;;3.60;99.90;;;;;;5037145;28;20445;-78
2023/03/11 13:20:41;;;;;;;;;;;3.70;99.90;;;;;;5009565;28;19909;-78
2023/03/11 13:23:13;;;;;;;;;;;3.70;99.90;;;;;;5036848;28;20457;-78
2023/03/11 13:25:43;;;;;;;;;;;3.70;99.90;;;;;;5018938;28;20382;-78
2023/03/11 13:28:27;;;;;;;;;;;3.70;99.90;;;;;;5037524;28;19917;-78
2023/03/11 13:31:12;;;;;;;;;;;3.60;99.90;;;;;;5037028;28;19972;-78
2023/03/11 13:33:53;;;;;;;;;;;3.60;99.90;;;;;;5036984;28;19977;-78
2023/03/11 13:36:38;;;;;;;;;;;3.70;99.90;;;;;;5036869;28;20381;-78
2023/03/11 13:39:22;;;;;;;;;;;3.70;99.90;;;;;;5036955;28;19909;-78
2023/03/11 13:41:48;;;;;;;;;;;3.70;99.90;;;;;;5036926;28;19916;-78
2023/03/11 13:44:32;;;;;;;;;;;3.70;99.90;;;;;;5036976;28;19949;-78
2023/03/11 13:47:07;;;;;;;;;;;3.70;99.90;;;;;;5036267;28;19913;-78
2023/03/11 13:49:44;;;;;;;;;;;3.80;99.90;;;;;;5036844;28;19964;-78
2023/03/11 13:52:23;;;;;;;;;;;3.80;99.90;;;;;;5036465;28;19915;-78
2023/03/11 13:54:54;;;;;;;;;;;3.70;99.90;;;;;;5035870;28;19958;-77
2023/03/11 13:57:30;;;;;;;;;;;3.70;99.90;;;;;;5036827;28;20408;-78
2023/03/11 13:59:56;;;;;;;;;;;3.70;99.90;;;;;;5036143;28;20394;-78
2023/03/11 14:02:23;;;;;;;;;;;3.70;99.90;;;;;;5018341;28;19909;-78
2023/03/11 14:04:50;;;;;;;;;;;3.60;99.90;;;;;;5035884;28;20003;-78
2023/03/11 14:07:22;;;;;;;;;;;3.70;99.90;;;;;;5036222;28;19913;-78
2023/03/11 14:09:48;;;;;;;;;;;3.70;99.90;;;;;;5035713;28;20035;-78
2023/03/11 14:12:14;;;;;;;;;;;3.60;99.90;;;;;;5018168;28;19979;-78
2023/03/11 14:14:42;;;;;;;;;;;3.60;99.90;;;;;;5036125;28;19913;-78
2023/03/11 14:17:13;;;;;;;;;;;3.60;99.90;;;;;;5017808;28;19910;-78
2023/03/11 14:19:39;;;;;;;;;;;3.60;99.90;;;;;;5018295;28;19927;-78
2023/03/11 14:22:06;;;;;;;;;;;3.60;99.90;;;;;;5018455;28;20320;-78
2023/03/11 14:24:32;;;;;;;;;;;3.60;99.90;;;;;;5035099;28;19960;-78
2023/03/11 14:26:59;;;;;;;;;;;3.60;99.90;;;;;;5035337;28;20358;-78
2023/03/11 14:29:31;;;;;;;;;;;3.70;99.90;;;;;;5017672;28;19913;-78
2023/03/11 14:31:59;;;;;;;;;;;3.70;99.90;;;;;;5034394;28;20331;-78
2023/03/11 14:34:30;;;;;;;;;;;3.70;99.90;;;;;;5035340;28;19914;-77
2023/03/11 14:36:57;;;;;;;;;;;3.80;99.90;;;;;;5035695;28;19917;-78